Terminal Aerodrome Forecast
Issued by NWS

Home | Current Version | Previous Version | Text Only | Print | Product List | Glossary On
Versions: 1 2 3 4 5 6 7 8 9 10 11 12 13 14 15 16 17 18 19 20 21 22 23 24
000
FTUS41 KBUF 210500
TAFIAG
TAF
KIAG 210531Z 2106/2206 21013G18KT P6SM BKN100
     FM210900 23014G20KT P6SM BKN035
     FM211300 23016G23KT P6SM BKN070
     FM211800 23022G32KT P6SM BKN070
     FM212300 23015KT P6SM BKN070
     FM220100 23010KT P6SM BKN070=

USA.gov is the U.S. government's official web portal to all federal, state and local government web resources and services.